Time;durP1;ratioP1;P1;durP2;ratioP2;P2;SDS_P1;SDS_P2;PMS_P1;PMS_P2;Temp;Humidity;BMP_temperature;BMP_pressure;BME280_temperature;BME280_humidity;BME280_pressure;Samples;Min_cycle;Max_cycle;Signal;HPM_P1;HPM_P2
2021/10/18 00:02:08;;;;;;;9.95;5.40;;;;;;;10.49;78.31;101362.31;4996252;28;20030;-77
2021/10/18 00:04:34;;;;;;;9.80;5.85;;;;;;;10.51;77.74;101365.88;5014072;28;20038;-78
2021/10/18 00:06:59;;;;;;;12.75;5.45;;;;;;;10.53;77.79;101376.41;5017495;28;20049;-78
2021/10/18 00:09:24;;;;;;;13.48;6.38;;;;;;;10.55;76.96;101372.03;5015624;28;20050;-77
2021/10/18 00:11:50;;;;;;;10.57;5.80;;;;;;;10.52;77.47;101372.91;5030746;28;20034;-76
2021/10/18 00:14:15;;;;;;;10.45;6.18;;;;;;;10.48;77.45;101370.25;5019281;28;20069;-76
2021/10/18 00:16:41;;;;;;;11.95;5.97;;;;;;;10.33;78.25;101371.00;5017653;28;20097;-77
2021/10/18 00:19:07;;;;;;;9.07;5.88;;;;;;;10.30;78.50;101370.97;5020557;28;20041;-76
2021/10/18 00:21:32;;;;;;;12.40;6.40;;;;;;;10.23;79.02;101377.03;5023541;28;20037;-78
2021/10/18 00:23:57;;;;;;;12.95;7.13;;;;;;;10.18;79.14;101376.09;5020241;28;20089;-78
2021/10/18 00:26:23;;;;;;;11.48;6.97;;;;;;;10.15;79.71;101376.09;5013193;28;20042;-78
2021/10/18 00:28:48;;;;;;;9.75;5.80;;;;;;;10.07;80.18;101368.97;5031987;28;20025;-77
2021/10/18 00:31:13;;;;;;;10.05;5.90;;;;;;;10.04;80.26;101370.72;5013927;28;20146;-77
2021/10/18 00:33:39;;;;;;;12.48;7.20;;;;;;;10.00;80.72;101377.69;5015612;28;20041;-77
2021/10/18 00:36:04;;;;;;;9.60;5.97;;;;;;;9.99;81.34;101369.78;5013735;28;20068;-77
2021/10/18 00:38:29;;;;;;;10.13;6.20;;;;;;;10.03;80.72;101376.84;5011883;28;20094;-78
2021/10/18 00:40:55;;;;;;;10.30;7.38;;;;;;;9.98;81.82;101379.44;5016280;28;20041;-77
2021/10/18 00:43:20;;;;;;;10.60;6.68;;;;;;;10.05;80.31;101377.75;5028386;28;20034;-77
2021/10/18 00:45:45;;;;;;;8.32;6.38;;;;;;;10.04;80.07;101368.94;5027602;28;20033;-78
2021/10/18 00:48:11;;;;;;;13.63;7.65;;;;;;;10.02;80.84;101368.03;5010787;28;20042;-77
2021/10/18 00:50:36;;;;;;;9.43;6.90;;;;;;;9.97;81.25;101364.47;5013568;28;20041;-78
2021/10/18 00:53:02;;;;;;;8.80;6.18;;;;;;;10.01;81.48;101368.06;5025477;28;20035;-78
2021/10/18 00:55:28;;;;;;;8.77;6.35;;;;;;;10.02;81.41;101369.81;5013092;28;20049;-78
2021/10/18 00:57:54;;;;;;;10.90;6.68;;;;;;;10.00;81.88;101367.13;5028446;28;20053;-78
2021/10/18 01:00:19;;;;;;;9.65;6.30;;;;;;;10.10;81.09;101368.13;5030079;28;20037;-77
2021/10/18 01:02:45;;;;;;;10.95;6.70;;;;;;;10.15;80.95;101363.78;5028139;28;20038;-78
2021/10/18 01:05:10;;;;;;;11.63;7.22;;;;;;;10.14;81.09;101363.75;5014711;28;20038;-78
2021/10/18 01:07:36;;;;;;;12.27;8.25;;;;;;;10.06;82.12;101361.94;4996614;28;20478;-78
2021/10/18 01:10:02;;;;;;;12.25;7.95;;;;;;;10.07;81.70;101368.09;5014559;28;20038;-78
2021/10/18 01:12:28;;;;;;;10.30;7.22;;;;;;;10.07;81.49;101362.81;5014068;28;20173;-77
2021/10/18 01:14:53;;;;;;;10.65;7.10;;;;;;;10.09;81.50;101366.38;5013472;28;20097;-78
2021/10/18 01:17:18;;;;;;;15.23;8.40;;;;;;;10.09;81.85;101361.97;5013627;28;20048;-78
2021/10/18 01:19:44;;;;;;;11.85;7.82;;;;;;;10.13;81.88;101356.72;5008824;28;20113;-76
2021/10/18 01:22:09;;;;;;;9.80;6.55;;;;;;;10.18;81.22;101366.44;4995004;28;20044;-77
2021/10/18 01:24:35;;;;;;;13.23;7.45;;;;;;;10.24;80.76;101365.59;5006458;28;20037;-77
2021/10/18 01:27:02;;;;;;;11.35;7.05;;;;;;;10.20;81.56;101358.53;5026546;28;20037;-77
2021/10/18 01:29:37;;;;;;;11.88;7.38;;;;;;;10.14;81.82;101364.66;5008037;28;20097;-77
2021/10/18 01:32:04;;;;;;;11.13;8.05;;;;;;;10.12;81.92;101365.50;5012441;28;20034;-77
2021/10/18 01:34:30;;;;;;;12.40;7.78;;;;;;;10.10;82.47;101369.00;5022689;28;20038;-77
2021/10/18 01:36:58;;;;;;;10.18;6.85;;;;;;;10.09;82.92;101372.53;5015320;28;20034;-77
2021/10/18 01:39:24;;;;;;;11.73;7.25;;;;;;;10.13;82.47;101373.41;5023074;28;20141;-77
2021/10/18 01:41:49;;;;;;;12.30;8.25;;;;;;;10.18;81.70;101376.97;5013254;28;20421;-78
2021/10/18 01:44:15;;;;;;;12.57;7.85;;;;;;;10.24;81.86;101376.16;5012568;28;20046;-77
2021/10/18 01:46:41;;;;;;;11.85;8.25;;;;;;;10.29;81.29;101366.56;5014892;28;20041;-77
2021/10/18 01:49:07;;;;;;;13.95;7.93;;;;;;;10.34;80.93;101371.88;5011574;28;20046;-77
2021/10/18 01:51:32;;;;;;;16.33;9.52;;;;;;;10.29;79.85;101377.09;5018425;28;20034;-78
2021/10/18 01:53:57;;;;;;;15.90;8.43;;;;;;;10.29;80.07;101385.91;5018728;28;20065;-77
2021/10/18 01:56:23;;;;;;;12.93;7.53;;;;;;;10.29;80.71;101385.03;5016900;28;20038;-77
2021/10/18 01:58:48;;;;;;;14.57;7.53;;;;;;;10.26;80.67;101385.84;5001650;28;20092;-77
2021/10/18 02:01:14;;;;;;;14.65;9.00;;;;;;;10.23;81.33;101388.47;5018600;28;20038;-78
2021/10/18 02:03:39;;;;;;;14.55;8.70;;;;;;;10.14;82.24;101383.13;5019419;28;20042;-77
2021/10/18 02:06:08;;;;;;;12.93;8.15;;;;;;;10.10;83.35;101376.03;5016384;28;20074;-77
2021/10/18 02:08:34;;;;;;;12.30;8.05;;;;;;;10.13;83.13;101383.09;5017149;28;20056;-77
2021/10/18 02:11:00;;;;;;;12.02;7.47;;;;;;;10.16;82.39;101373.44;5028447;28;20057;-78
2021/10/18 02:13:25;;;;;;;10.60;7.35;;;;;;;10.19;82.11;101370.84;5033858;28;20054;-78
2021/10/18 02:15:50;;;;;;;9.45;7.22;;;;;;;10.26;82.30;101374.41;5016686;28;20040;-78
2021/10/18 02:18:16;;;;;;;11.55;7.93;;;;;;;10.34;81.68;101372.75;5015532;28;20034;-78
2021/10/18 02:20:41;;;;;;;10.20;7.53;;;;;;;10.42;81.34;101364.91;5020054;28;20041;-77
2021/10/18 02:23:06;;;;;;;9.07;6.65;;;;;;;10.47;81.40;101358.78;5019464;28;20049;-78
2021/10/18 02:25:32;;;;;;;12.73;8.18;;;;;;;10.50;80.80;101369.34;5019722;28;20108;-78
2021/10/18 02:27:58;;;;;;;13.10;8.55;;;;;;;10.36;81.54;101364.88;5019633;28;20036;-77
2021/10/18 02:30:23;;;;;;;11.82;7.45;;;;;;;10.23;82.27;101370.00;5038622;28;20037;-76
2021/10/18 02:32:49;;;;;;;9.68;7.38;;;;;;;10.23;82.54;101366.47;5018476;28;20042;-78
2021/10/18 02:35:14;;;;;;;11.07;7.68;;;;;;;10.16;83.11;101367.28;5021293;28;20085;-77
2021/10/18 02:37:39;;;;;;;10.40;7.47;;;;;;;10.04;83.74;101379.50;5016131;28;20057;-77
2021/10/18 02:40:05;;;;;;;9.90;6.53;;;;;;;10.12;83.26;101369.03;5021874;28;20034;-77
2021/10/18 02:42:31;;;;;;;12.15;7.60;;;;;;;10.25;82.23;101356.81;5016959;28;20072;-78
2021/10/18 02:44:57;;;;;;;11.07;7.35;;;;;;;10.29;81.77;101369.19;5036182;28;20093;-78
2021/10/18 02:47:22;;;;;;;11.55;6.63;;;;;;;10.25;82.37;101372.66;5017282;28;20084;-76
2021/10/18 02:49:47;;;;;;;13.27;8.70;;;;;;;10.25;82.19;101373.53;5020002;28;20121;-76
2021/10/18 02:52:13;;;;;;;10.60;7.95;;;;;;;10.28;82.41;101383.25;5017251;28;20038;-77
2021/10/18 02:54:39;;;;;;;10.20;7.38;;;;;;;10.24;81.69;101378.78;5014225;28;20048;-78
2021/10/18 02:57:04;;;;;;;11.20;7.88;;;;;;;10.19;81.96;101378.78;5012809;28;20102;-78
2021/10/18 02:59:30;;;;;;;13.00;7.85;;;;;;;10.22;81.79;101383.19;5014257;28;20404;-78
2021/10/18 03:01:56;;;;;;;11.98;8.60;;;;;;;10.23;81.95;101379.66;5015367;28;20061;-78
2021/10/18 03:04:21;;;;;;;11.75;7.13;;;;;;;10.25;81.43;101388.50;5033047;28;20455;-78
2021/10/18 03:06:46;;;;;;;12.35;8.00;;;;;;;10.23;81.14;101385.81;5015024;28;20401;-78
2021/10/18 03:09:12;;;;;;;11.38;8.57;;;;;;;10.22;81.42;101393.75;5018138;28;20411;-78
2021/10/18 03:11:37;;;;;;;14.45;9.73;;;;;;;10.25;81.68;101393.75;5015128;28;20543;-78
2021/10/18 03:14:04;;;;;;;11.57;8.60;;;;;;;10.23;80.96;101400.78;5012890;28;20042;-77
2021/10/18 03:16:30;;;;;;;10.55;7.85;;;;;;;10.23;81.85;101400.78;5016551;28;20022;-77
2021/10/18 03:18:55;;;;;;;12.57;9.82;;;;;;;10.23;81.10;101401.66;5015650;28;20044;-77
2021/10/18 03:21:21;;;;;;;13.35;8.02;;;;;;;10.22;81.28;101399.91;5012967;28;20057;-77
2021/10/18 03:23:46;;;;;;;12.95;8.25;;;;;;;10.21;81.50;101403.38;5013466;28;20061;-76
2021/10/18 03:26:15;;;;;;;11.15;7.65;;;;;;;10.23;81.04;101401.66;5020072;28;20030;-78
2021/10/18 03:28:40;;;;;;;10.48;7.13;;;;;;;10.20;81.40;101395.47;5021367;28;20099;-78
2021/10/18 03:31:05;;;;;;;16.52;11.48;;;;;;;10.15;81.65;101405.09;5014413;28;20041;-78
2021/10/18 03:33:38;;;;;;;15.30;11.32;;;;;;;10.06;82.03;101406.78;5013154;28;20056;-77
2021/10/18 03:36:05;;;;;;;13.88;9.18;;;;;;;10.04;82.23;101410.28;5031512;28;21256;-78
2021/10/18 03:38:31;;;;;;;10.15;8.23;;;;;;;10.03;82.33;101409.41;5019698;28;20042;-77
2021/10/18 03:40:57;;;;;;;11.70;8.43;;;;;;;9.99;82.92;101415.50;5016722;28;20048;-78
2021/10/18 03:43:22;;;;;;;15.55;9.95;;;;;;;9.93;83.12;101417.16;5015858;28;20026;-78
2021/10/18 03:45:48;;;;;;;12.80;9.60;;;;;;;9.95;83.93;101415.44;5018748;28;20018;-78
2021/10/18 03:48:14;;;;;;;12.40;8.45;;;;;;;10.02;82.72;101407.59;5014976;28;20046;-78
2021/10/18 03:50:39;;;;;;;11.77;8.75;;;;;;;10.10;82.10;101411.19;5016802;28;20065;-78
2021/10/18 03:53:05;;;;;;;11.32;7.63;;;;;;;10.18;81.65;101418.31;5015012;28;20488;-78
2021/10/18 03:55:30;;;;;;;13.85;7.50;;;;;;;10.20;81.06;101406.03;5018644;28;20060;-78
2021/10/18 03:57:55;;;;;;;12.80;7.88;;;;;;;10.26;80.67;101414.88;5014195;28;20049;-77
2021/10/18 04:00:21;;;;;;;12.80;8.30;;;;;;;10.33;81.10;101407.94;5017706;28;20117;-77
2021/10/18 04:02:47;;;;;;;10.27;8.23;;;;;;;10.31;80.96;101401.75;5018610;28;20057;-79
2021/10/18 04:05:12;;;;;;;11.57;8.20;;;;;;;10.34;81.10;101419.38;5022101;28;20428;-79
2021/10/18 04:07:38;;;;;;;10.55;7.63;;;;;;;10.34;80.70;101412.34;5016814;28;20038;-78
2021/10/18 04:10:05;;;;;;;10.88;7.78;;;;;;;10.33;80.67;101413.22;5017237;28;20048;-78
2021/10/18 04:12:30;;;;;;;10.45;7.05;;;;;;;10.33;80.63;101415.84;5033864;28;20030;-78
2021/10/18 04:14:55;;;;;;;12.57;7.93;;;;;;;10.38;80.42;101400.94;5020570;28;20037;-77
2021/10/18 04:17:20;;;;;;;12.48;7.65;;;;;;;10.35;80.47;101422.03;5026766;28;20046;-78
2021/10/18 04:19:46;;;;;;;10.90;7.30;;;;;;;10.36;80.85;101417.63;5017570;28;20041;-77
2021/10/18 04:22:11;;;;;;;10.10;7.15;;;;;;;10.42;81.00;101418.56;5016866;28;20041;-78
2021/10/18 04:24:36;;;;;;;9.85;6.00;;;;;;;10.47;80.17;101414.19;5009193;28;20045;-76
2021/10/18 04:27:02;;;;;;;10.38;6.75;;;;;;;10.45;80.72;101421.25;5004745;28;20034;-77
2021/10/18 04:29:27;;;;;;;11.25;7.07;;;;;;;10.38;81.03;101416.78;5007309;28;20041;-77
2021/10/18 04:31:58;;;;;;;11.88;6.85;;;;;;;10.42;80.59;101423.84;5005155;28;20042;-77
2021/10/18 04:34:24;;;;;;;8.65;6.45;;;;;;;10.45;79.88;101421.25;5006010;28;20056;-77
2021/10/18 04:36:50;;;;;;;13.52;7.35;;;;;;;10.49;79.84;101424.78;5012463;28;20030;-77
2021/10/18 04:39:15;;;;;;;11.35;6.95;;;;;;;10.52;79.14;101425.69;5008953;28;20121;-77
2021/10/18 04:41:40;;;;;;;12.02;7.40;;;;;;;10.46;79.74;101435.31;5021542;28;20046;-77
2021/10/18 04:44:06;;;;;;;13.65;7.50;;;;;;;10.45;79.80;101431.81;5008538;28;20045;-77
2021/10/18 04:46:31;;;;;;;12.25;6.95;;;;;;;10.46;79.41;101438.84;5010848;28;20085;-77
2021/10/18 04:48:56;;;;;;;14.43;7.70;;;;;;;10.40;79.53;101444.06;5012828;28;20030;-76
2021/10/18 04:51:22;;;;;;;13.65;7.40;;;;;;;10.37;79.33;101446.66;5007291;28;20049;-76
2021/10/18 04:53:47;;;;;;;11.60;8.30;;;;;;;10.36;79.43;101444.03;5006241;28;20049;-77
2021/10/18 04:56:12;;;;;;;13.70;8.20;;;;;;;10.35;79.39;101451.06;5024593;28;20133;-76
2021/10/18 04:58:38;;;;;;;9.25;6.70;;;;;;;10.34;79.48;101446.63;5011291;28;20117;-76
2021/10/18 05:01:03;;;;;;;13.68;8.18;;;;;;;10.26;79.67;101440.38;5003317;28;20125;-77
2021/10/18 05:03:28;;;;;;;13.05;7.82;;;;;;;10.23;79.05;101450.91;5020364;28;20046;-76
2021/10/18 05:05:54;;;;;;;16.75;8.68;;;;;;;10.19;79.53;101460.56;5005678;28;20034;-76
2021/10/18 05:08:19;;;;;;;9.63;7.32;;;;;;;10.16;80.37;101459.59;5003146;28;20030;-76
2021/10/18 05:10:45;;;;;;;14.05;9.57;;;;;;;10.17;80.07;101462.28;5005413;28;20053;-76
2021/10/18 05:13:11;;;;;;;12.93;9.20;;;;;;;10.21;79.82;101456.16;5008937;28;20576;-77
2021/10/18 05:15:37;;;;;;;11.73;7.20;;;;;;;10.33;79.72;101465.09;5007838;28;20047;-76
2021/10/18 05:18:04;;;;;;;13.15;8.52;;;;;;;10.40;79.66;101467.81;5009913;28;20034;-77
2021/10/18 05:20:32;;;;;;;13.35;7.60;;;;;;;10.35;78.67;101468.63;5008249;28;20030;-76
2021/10/18 05:22:57;;;;;;;11.98;7.88;;;;;;;10.37;79.11;101459.84;5008555;28;20477;-76
2021/10/18 05:25:23;;;;;;;11.38;7.68;;;;;;;10.43;78.23;101466.97;5008350;28;20088;-77
2021/10/18 05:27:48;;;;;;;10.35;6.95;;;;;;;10.39;78.08;101459.88;5008678;28;20400;-76
2021/10/18 05:30:16;;;;;;;11.05;6.82;;;;;;;10.26;79.07;101469.38;5000769;28;20042;-76
2021/10/18 05:32:41;;;;;;;13.98;7.93;;;;;;;10.27;79.48;101468.50;5007821;28;20037;-76
2021/10/18 05:35:07;;;;;;;9.57;6.72;;;;;;;10.34;78.56;101474.78;5001311;28;20112;-76
2021/10/18 05:37:33;;;;;;;14.20;7.18;;;;;;;10.31;78.87;101468.59;5003281;28;20034;-76
2021/10/18 05:39:58;;;;;;;14.07;8.73;;;;;;;10.30;78.77;101481.78;5001815;28;20168;-76
2021/10/18 05:42:24;;;;;;;13.23;7.78;;;;;;;10.28;79.14;101479.13;5002551;28;20043;-76
2021/10/18 05:44:49;;;;;;;10.45;6.53;;;;;;;10.25;78.91;101475.56;5002440;28;20049;-76
2021/10/18 05:47:14;;;;;;;13.23;6.35;;;;;;;10.28;78.59;101465.94;5001998;28;20113;-77
2021/10/18 05:49:40;;;;;;;9.48;6.55;;;;;;;10.29;78.18;101474.72;5018165;28;20069;-76
2021/10/18 05:52:05;;;;;;;11.70;6.55;;;;;;;10.31;78.23;101483.56;5001264;28;20057;-77
2021/10/18 05:54:31;;;;;;;9.25;5.95;;;;;;;10.31;77.84;101480.91;5000214;28;20039;-76
2021/10/18 05:56:56;;;;;;;11.88;7.05;;;;;;;10.32;77.65;101487.94;5008459;28;20060;-76
2021/10/18 05:59:22;;;;;;;10.30;6.53;;;;;;;10.26;77.33;101487.84;5002993;28;20516;-77
2021/10/18 06:01:47;;;;;;;10.10;6.90;;;;;;;10.26;77.83;101490.50;5007553;28;20488;-76
2021/10/18 06:04:12;;;;;;;12.70;6.53;;;;;;;10.28;78.11;101494.09;5005041;28;20057;-76
2021/10/18 06:06:38;;;;;;;11.80;7.05;;;;;;;10.35;77.14;101495.00;5003492;28;20021;-76
2021/10/18 06:09:05;;;;;;;16.65;9.32;;;;;;;10.40;76.73;101494.22;5002192;28;20053;-76
2021/10/18 06:11:31;;;;;;;12.13;7.32;;;;;;;10.33;77.30;101488.84;5006376;28;20030;-76
2021/10/18 06:13:57;;;;;;;14.07;7.03;;;;;;;10.24;76.73;101492.22;5002513;28;20329;-76
2021/10/18 06:16:22;;;;;;;11.50;7.25;;;;;;;10.27;77.28;101500.16;5000304;28;20042;-76
2021/10/18 06:18:47;;;;;;;10.18;6.70;;;;;;;10.30;77.51;101502.91;5005263;28;20180;-77
2021/10/18 06:21:13;;;;;;;9.88;6.22;;;;;;;10.33;76.86;101502.94;5001286;28;20066;-76
2021/10/18 06:23:38;;;;;;;11.82;7.32;;;;;;;10.31;76.91;101499.38;5003336;28;20030;-76
2021/10/18 06:26:03;;;;;;;10.13;6.68;;;;;;;10.34;77.30;101504.69;4991554;28;20048;-76
2021/10/18 06:28:28;;;;;;;9.07;6.43;;;;;;;10.44;76.47;101511.84;5004184;28;20066;-76
2021/10/18 06:30:54;;;;;;;13.40;6.85;;;;;;;10.48;75.84;101511.00;5009653;28;20480;-75
2021/10/18 06:33:21;;;;;;;9.88;6.43;;;;;;;10.43;76.05;101515.34;5015473;28;20097;-76
2021/10/18 06:35:46;;;;;;;9.88;5.60;;;;;;;10.43;76.08;101515.34;5007822;28;20041;-76
2021/10/18 06:38:14;;;;;;;11.25;6.97;;;;;;;10.40;76.52;101515.31;5008204;28;20120;-76
2021/10/18 06:40:41;;;;;;;15.50;9.93;;;;;;;10.42;76.36;101513.56;5005824;28;20125;-76
2021/10/18 06:43:06;;;;;;;9.88;7.07;;;;;;;10.49;75.65;101518.03;5004262;28;20034;-76
2021/10/18 06:45:32;;;;;;;11.82;6.38;;;;;;;10.45;75.63;101524.19;5005252;28;20761;-76
2021/10/18 06:47:58;;;;;;;12.38;6.22;;;;;;;10.50;75.98;101525.06;5004866;28;20116;-77
2021/10/18 06:50:26;;;;;;;10.43;5.95;;;;;;;10.55;75.79;101529.53;4989056;28;20117;-76
2021/10/18 06:52:51;;;;;;;7.68;5.20;;;;;;;10.63;75.34;101534.00;5007362;28;20084;-76
2021/10/18 06:55:19;;;;;;;9.15;5.75;;;;;;;10.66;75.44;101535.78;5020191;28;20481;-77
2021/10/18 06:57:44;;;;;;;11.68;5.32;;;;;;;10.66;74.88;101530.50;5020822;28;20034;-76
2021/10/18 07:00:10;;;;;;;12.30;7.05;;;;;;;10.75;74.57;101534.13;5006037;28;20034;-76
2021/10/18 07:02:35;;;;;;;9.65;6.38;;;;;;;10.82;74.00;101535.09;5010920;28;20022;-76
2021/10/18 07:05:00;;;;;;;13.70;6.85;;;;;;;10.81;74.57;101541.22;5010051;28;20045;-76
2021/10/18 07:07:29;;;;;;;12.23;6.07;;;;;;;10.87;74.19;101543.94;5002791;28;20049;-76
2021/10/18 07:10:01;;;;;;;8.40;6.30;;;;;;;10.95;74.26;101542.25;5004960;28;20036;-76
2021/10/18 07:12:32;;;;;;;11.77;6.88;;;;;;;11.03;73.62;101547.59;5008292;28;20041;-76
2021/10/18 07:14:59;;;;;;;8.80;5.53;;;;;;;11.12;73.79;101550.28;5005676;28;20042;-76
2021/10/18 07:17:26;;;;;;;9.88;4.82;;;;;;;11.19;73.45;101556.53;5003017;28;20041;-76
2021/10/18 07:19:52;;;;;;;8.95;5.45;;;;;;;11.20;72.84;101553.00;5006530;28;20034;-76
2021/10/18 07:22:19;;;;;;;9.80;5.47;;;;;;;11.27;73.12;101554.81;5006331;28;20038;-76
2021/10/18 07:24:44;;;;;;;12.35;5.90;;;;;;;11.31;72.23;101551.31;5003084;28;20128;-76
2021/10/18 07:27:10;;;;;;;9.43;5.50;;;;;;;11.29;72.51;101554.81;5009966;28;20069;-76
2021/10/18 07:29:36;;;;;;;9.45;5.72;;;;;;;11.37;72.80;101558.38;5006049;28;20033;-77
2021/10/18 07:32:01;;;;;;;12.93;5.55;;;;;;;11.39;72.44;101551.34;5003049;28;20049;-76
2021/10/18 07:34:26;;;;;;;8.05;5.38;;;;;;;11.50;72.52;101546.13;5008124;28;20513;-76
2021/10/18 07:36:52;;;;;;;10.23;5.57;;;;;;;11.54;71.88;101554.09;5004190;28;20038;-77
2021/10/18 07:39:20;;;;;;;11.30;5.50;;;;;;;11.60;71.21;101559.41;5019114;28;20037;-77
2021/10/18 07:41:46;;;;;;;8.68;5.00;;;;;;;11.55;70.84;101561.19;5002784;28;20027;-77
2021/10/18 07:44:12;;;;;;;8.07;4.57;;;;;;;11.58;70.56;101552.34;5004250;28;20045;-76
2021/10/18 07:46:37;;;;;;;8.20;4.60;;;;;;;11.70;70.58;101560.38;5003080;28;20080;-76
2021/10/18 07:49:02;;;;;;;10.50;5.10;;;;;;;11.79;69.86;101567.50;5004899;28;20049;-76
2021/10/18 07:51:28;;;;;;;10.57;5.40;;;;;;;11.82;70.06;101571.03;5002589;28;20046;-76
2021/10/18 07:53:53;;;;;;;8.23;4.60;;;;;;;11.93;70.41;101578.16;4987583;28;20056;-77
2021/10/18 07:56:18;;;;;;;10.30;5.18;;;;;;;12.06;69.55;101575.56;5002368;28;20042;-77
2021/10/18 07:58:44;;;;;;;10.48;5.40;;;;;;;12.17;68.92;101578.25;5005685;28;20052;-76
2021/10/18 08:01:09;;;;;;;8.65;5.38;;;;;;;12.24;68.04;101572.13;5017626;28;20034;-76
2021/10/18 08:03:34;;;;;;;12.45;6.00;;;;;;;12.23;68.13;101578.28;5004451;28;20495;-76
2021/10/18 08:06:00;;;;;;;11.30;5.40;;;;;;;12.15;67.95;101584.44;5003464;28;20490;-76
2021/10/18 08:08:30;;;;;;;8.93;5.20;;;;;;;12.17;68.28;101588.84;5002395;28;20552;-77
2021/10/18 08:10:56;;;;;;;13.45;5.55;;;;;;;12.21;67.58;101590.66;5003412;28;20064;-77
2021/10/18 08:13:21;;;;;;;10.88;5.47;;;;;;;12.30;68.19;101592.44;5018884;28;20488;-77
2021/10/18 08:15:46;;;;;;;12.02;5.65;;;;;;;12.47;67.66;101603.97;5019024;28;20066;-76
2021/10/18 08:18:12;;;;;;;9.18;5.07;;;;;;;12.57;66.67;101596.03;5003347;28;20046;-76
2021/10/18 08:20:38;;;;;;;10.13;5.13;;;;;;;12.59;66.81;101605.75;5002896;28;20128;-76
2021/10/18 08:23:04;;;;;;;10.68;5.43;;;;;;;12.58;65.69;101601.34;5009142;28;20522;-76
2021/10/18 08:25:29;;;;;;;11.10;5.15;;;;;;;12.67;66.07;101605.78;5003411;28;20505;-76
2021/10/18 08:27:55;;;;;;;9.80;5.47;;;;;;;12.71;65.43;101608.44;5001678;28;20069;-76
2021/10/18 08:30:21;;;;;;;10.13;5.43;;;;;;;12.77;65.41;101604.03;5019932;28;20183;-76
2021/10/18 08:32:47;;;;;;;12.27;6.05;;;;;;;12.82;65.52;101604.94;5004214;28;20030;-76
2021/10/18 08:35:12;;;;;;;10.93;5.35;;;;;;;12.89;64.51;101601.41;5004830;28;20516;-76
2021/10/18 08:40:26;;;;;;;9.52;5.10;;;;;;;13.02;64.13;101602.28;5007532;28;20108;-77
2021/10/18 08:42:56;;;;;;;9.05;5.25;;;;;;;13.15;64.11;101604.97;5004244;28;20029;-76
2021/10/18 08:45:22;;;;;;;8.93;4.85;;;;;;;13.22;63.89;101602.31;5005788;28;20539;-76
2021/10/18 08:47:49;;;;;;;8.98;5.07;;;;;;;13.24;63.44;101604.09;5018494;28;20044;-76
2021/10/18 08:50:15;;;;;;;9.70;5.10;;;;;;;13.37;62.71;101605.00;5001926;28;20413;-76
2021/10/18 08:52:42;;;;;;;12.73;5.18;;;;;;;13.38;62.09;101606.75;5009146;28;20041;-76
2021/10/18 08:55:08;;;;;;;8.32;4.65;;;;;;;13.53;62.10;101605.88;5022758;28;20607;-76
2021/10/18 08:57:34;;;;;;;9.98;4.53;;;;;;;13.62;60.91;101594.34;5001301;28;20382;-75
2021/10/18 08:59:59;;;;;;;9.80;4.53;;;;;;;13.67;61.47;101592.56;5008591;28;20049;-76
2021/10/18 09:02:36;;;;;;;7.03;3.90;;;;;;;13.85;60.77;101589.00;5011407;28;20073;-76
2021/10/18 09:05:04;;;;;;;9.60;4.10;;;;;;;13.85;59.97;101596.97;5010842;28;20053;-76
2021/10/18 09:07:35;;;;;;;6.68;4.15;;;;;;;13.89;59.21;101590.78;5006422;28;20022;-76
2021/10/18 09:10:01;;;;;;;9.63;4.22;;;;;;;13.66;58.43;101598.78;5002740;28;20037;-77
2021/10/18 09:12:33;;;;;;;11.68;5.22;;;;;;;13.71;58.66;101599.66;5001323;28;20045;-76
2021/10/18 09:15:18;;;;;;;;;;;;;;;13.74;58.64;101603.19;5002870;28;20033;-76
2021/10/18 09:17:43;;;;;;;10.02;4.13;;;;;;;13.90;59.72;101606.69;5002714;28;20473;-76
2021/10/18 09:20:21;;;;;;;8.23;4.40;;;;;;;14.06;58.01;101601.31;5000241;28;20030;-76
2021/10/18 09:22:47;;;;;;;7.50;4.30;;;;;;;14.11;58.56;101600.41;5002636;28;20459;-76
2021/10/18 09:25:33;;;;;;;7.75;4.43;;;;;;;14.17;58.61;101596.84;5000770;28;20033;-76
2021/10/18 09:28:14;;;;;;;8.02;4.07;;;;;;;14.31;58.31;101592.38;5004340;28;20137;-76
2021/10/18 09:30:42;;;;;;;7.05;4.30;;;;;;;14.30;58.55;101593.25;5000983;28;20517;-76
2021/10/18 09:33:26;;;;;;;7.22;4.65;;;;;;;14.37;58.95;101581.72;5002489;28;20065;-76
2021/10/18 09:35:53;;;;;;;8.93;4.18;;;;;;;14.35;58.63;101586.16;5001717;28;20042;-76
2021/10/18 09:38:21;;;;;;;8.88;5.47;;;;;;;14.28;58.14;101587.09;5000643;28;20489;-76
2021/10/18 09:40:51;;;;;;;8.48;5.30;;;;;;;14.20;58.73;101580.91;5017831;28;20030;-76
2021/10/18 09:46:11;;;;;;;8.00;4.63;;;;;;;14.21;57.37;101580.03;5020764;28;20112;-76
2021/10/18 10:53:33;;;;;;;8.00;3.63;;;;;;;16.40;48.81;101578.13;5004723;28;20085;-77
2021/10/18 10:56:17;;;;;;;7.65;3.97;;;;;;;16.16;48.79;101576.66;5007669;28;20128;-77
2021/10/18 11:01:39;;;;;;;11.40;5.05;;;;;;;16.01;49.78;101560.88;5004305;28;20049;-76
2021/10/18 11:04:31;;;;;;;8.40;4.22;;;;;;;16.10;49.37;101560.75;5004066;28;20045;-76
2021/10/18 11:06:57;;;;;;;8.32;3.63;;;;;;;16.10;50.13;101562.53;5003958;28;20027;-76
2021/10/18 11:09:47;;;;;;;7.55;3.70;;;;;;;16.04;50.57;101562.63;5004934;28;20109;-76
2021/10/18 11:12:32;;;;;;;7.18;3.92;;;;;;;16.09;50.38;101559.00;5004597;28;20034;-76
2021/10/18 11:15:09;;;;;;;6.93;3.92;;;;;;;15.85;51.21;101556.63;5018260;28;20030;-76
2021/10/18 11:17:37;;;;;;;6.55;3.53;;;;;;;15.72;51.29;101558.56;5008414;28;20060;-77
2021/10/18 11:20:11;;;;;;;6.82;3.42;;;;;;;15.77;51.83;101554.94;5002039;28;20042;-77
2021/10/18 11:22:39;;;;;;;8.80;4.13;;;;;;;15.63;51.87;101553.28;5004671;28;20033;-77
2021/10/18 11:25:09;;;;;;;8.05;4.25;;;;;;;15.46;52.01;101553.47;5002846;28;20049;-76
2021/10/18 11:27:36;;;;;;;8.70;4.20;;;;;;;15.38;52.25;101555.31;5003134;28;20113;-77
2021/10/18 11:30:07;;;;;;;8.15;3.85;;;;;;;15.34;52.69;101551.81;5025072;28;20042;-76
2021/10/18 11:32:35;;;;;;;10.23;3.83;;;;;;;15.23;52.96;101545.72;5009660;28;20555;-76
2021/10/18 11:35:18;;;;;;;7.65;3.75;;;;;;;15.02;53.35;101545.00;5010569;28;20034;-76
2021/10/18 11:38:00;;;;;;;7.97;4.60;;;;;;;15.08;53.28;101538.75;5011182;28;20048;-76
2021/10/18 11:40:39;;;;;;;9.38;3.97;;;;;;;15.08;52.71;101536.09;5009928;28;20042;-76
2021/10/18 11:43:09;;;;;;;10.52;5.63;;;;;;;15.16;53.52;101531.59;5019929;28;20042;-76
2021/10/18 11:45:40;;;;;;;26.40;14.18;;;;;;;15.38;53.75;101526.06;5007740;28;20038;-76
2021/10/18 11:48:11;;;;;;;8.18;5.35;;;;;;;15.51;52.90;101527.69;5007611;28;20066;-75
2021/10/18 11:50:40;;;;;;;7.60;3.50;;;;;;;15.80;51.70;101530.09;5007593;28;20092;-76
2021/10/18 11:53:43;;;;;;;5.35;3.10;;;;;;;16.11;50.11;101530.59;5007232;28;20076;-76
2021/10/18 11:56:09;;;;;;;6.13;2.97;;;;;;;16.19;49.46;101526.03;5006173;28;20054;-76
2021/10/18 11:58:38;;;;;;;7.32;3.90;;;;;;;16.33;49.24;101524.94;5012711;28;20033;-76
2021/10/18 12:01:09;;;;;;;8.43;3.10;;;;;;;16.52;48.06;101522.91;5003660;28;20538;-76
2021/10/18 12:03:36;;;;;;;5.93;3.75;;;;;;;16.67;47.61;101519.13;5005522;28;20092;-76
2021/10/18 12:06:04;;;;;;;6.28;3.60;;;;;;;16.79;47.89;101519.84;5009307;28;20029;-77
2021/10/18 12:08:34;;;;;;;8.30;4.10;;;;;;;17.05;46.82;101515.84;5017001;28;20061;-77
2021/10/18 12:11:02;;;;;;;6.60;4.18;;;;;;;17.26;47.17;101519.91;5004004;28;20125;-76
2021/10/18 12:13:35;;;;;;;7.20;4.38;;;;;;;17.50;46.30;101513.25;5016955;28;20034;-77
2021/10/18 12:16:03;;;;;;;7.00;3.65;;;;;;;17.70;45.38;101510.19;5003186;28;20049;-77
2021/10/18 12:18:35;;;;;;;5.78;2.88;;;;;;;17.64;45.33;101510.31;5018022;28;20451;-76
2021/10/18 12:21:05;;;;;;;8.20;3.70;;;;;;;17.80;45.50;101506.47;5002881;28;20100;-76
2021/10/18 12:23:33;;;;;;;5.90;3.15;;;;;;;18.06;45.60;101507.72;5003376;28;20030;-77
2021/10/18 12:26:04;;;;;;;6.90;3.28;;;;;;;18.23;45.22;101496.63;5002535;28;20037;-76
2021/10/18 12:28:38;;;;;;;7.40;3.20;;;;;;;18.41;44.41;101501.56;5006959;28;20073;-76
2021/10/18 12:31:03;;;;;;;8.90;3.42;;;;;;;18.37;45.22;101495.41;4999844;28;20563;-76
2021/10/18 12:33:40;;;;;;;5.57;2.90;;;;;;;18.53;44.08;101487.03;5004962;28;20034;-76